sensor_id;sensor_type;location;lat;lon;timestamp;temperature;humidity
72338;DHT22;60294;64.134;-21.862;2023-05-10T00:01:24;10.10;89.70
72338;DHT22;60294;64.134;-21.862;2023-05-10T00:03:50;10.10;89.80
72338;DHT22;60294;64.134;-21.862;2023-05-10T00:08:42;10.10;89.50
72338;DHT22;60294;64.134;-21.862;2023-05-10T00:11:08;10.10;89.50
72338;DHT22;60294;64.134;-21.862;2023-05-10T00:13:34;10.10;89.50
72338;DHT22;60294;64.134;-21.862;2023-05-10T00:16:00;10.10;89.40
72338;DHT22;60294;64.134;-21.862;2023-05-10T00:18:26;10.10;89.40
72338;DHT22;60294;64.134;-21.862;2023-05-10T00:20:51;10.10;89.00
72338;DHT22;60294;64.134;-21.862;2023-05-10T00:23:17;10.00;89.20
72338;DHT22;60294;64.134;-21.862;2023-05-10T00:28:09;10.10;89.40
72338;DHT22;60294;64.134;-21.862;2023-05-10T00:30:35;10.00;89.30
72338;DHT22;60294;64.134;-21.862;2023-05-10T00:33:01;10.00;89.30
72338;DHT22;60294;64.134;-21.862;2023-05-10T00:35:26;10.00;89.40
72338;DHT22;60294;64.134;-21.862;2023-05-10T00:37:52;10.00;89.50
72338;DHT22;60294;64.134;-21.862;2023-05-10T00:40:18;10.10;89.50
72338;DHT22;60294;64.134;-21.862;2023-05-10T00:42:44;10.10;89.50
72338;DHT22;60294;64.134;-21.862;2023-05-10T00:45:10;10.10;89.40
72338;DHT22;60294;64.134;-21.862;2023-05-10T00:47:36;10.00;89.30
72338;DHT22;60294;64.134;-21.862;2023-05-10T00:50:03;9.90;89.40
72338;DHT22;60294;64.134;-21.862;2023-05-10T00:52:30;10.00;89.40
72338;DHT22;60294;64.134;-21.862;2023-05-10T00:54:56;10.00;89.40
72338;DHT22;60294;64.134;-21.862;2023-05-10T00:57:22;10.00;89.30
72338;DHT22;60294;64.134;-21.862;2023-05-10T00:59:48;10.00;89.30
72338;DHT22;60294;64.134;-21.862;2023-05-10T01:02:16;10.00;89.40
72338;DHT22;60294;64.134;-21.862;2023-05-10T01:04:43;9.90;89.40
72338;DHT22;60294;64.134;-21.862;2023-05-10T01:07:08;9.90;89.40
72338;DHT22;60294;64.134;-21.862;2023-05-10T01:09:34;9.90;89.50
72338;DHT22;60294;64.134;-21.862;2023-05-10T01:12:01;9.90;89.70
72338;DHT22;60294;64.134;-21.862;2023-05-10T01:14:30;9.90;89.70
72338;DHT22;60294;64.134;-21.862;2023-05-10T01:16:56;9.90;89.80
72338;DHT22;60294;64.134;-21.862;2023-05-10T01:19:27;10.00;89.80
72338;DHT22;60294;64.134;-21.862;2023-05-10T01:33:51;10.00;89.70
72338;DHT22;60294;64.134;-21.862;2023-05-10T01:36:33;10.00;89.60
72338;DHT22;60294;64.134;-21.862;2023-05-10T01:42:26;10.10;89.70
72338;DHT22;60294;64.134;-21.862;2023-05-10T01:45:06;10.10;89.50
72338;DHT22;60294;64.134;-21.862;2023-05-10T01:47:50;10.10;89.40
72338;DHT22;60294;64.134;-21.862;2023-05-10T01:50:20;10.00;89.30
72338;DHT22;60294;64.134;-21.862;2023-05-10T01:52:53;10.00;89.50
72338;DHT22;60294;64.134;-21.862;2023-05-10T01:55:21;10.10;89.60
72338;DHT22;60294;64.134;-21.862;2023-05-10T01:57:51;10.10;89.50
72338;DHT22;60294;64.134;-21.862;2023-05-10T02:00:20;10.10;89.50
72338;DHT22;60294;64.134;-21.862;2023-05-10T02:02:48;10.20;89.40
72338;DHT22;60294;64.134;-21.862;2023-05-10T02:05:16;10.20;89.30
72338;DHT22;60294;64.134;-21.862;2023-05-10T02:07:43;10.10;89.20
72338;DHT22;60294;64.134;-21.862;2023-05-10T02:10:10;10.10;89.10
72338;DHT22;60294;64.134;-21.862;2023-05-10T02:12:41;10.10;89.00
72338;DHT22;60294;64.134;-21.862;2023-05-10T02:15:11;10.10;88.90
72338;DHT22;60294;64.134;-21.862;2023-05-10T02:17:39;10.10;88.90
72338;DHT22;60294;64.134;-21.862;2023-05-10T02:20:06;10.10;88.90
72338;DHT22;60294;64.134;-21.862;2023-05-10T02:22:35;10.10;88.80
72338;DHT22;60294;64.134;-21.862;2023-05-10T02:25:03;10.10;88.80
72338;DHT22;60294;64.134;-21.862;2023-05-10T02:27:32;10.10;88.70
72338;DHT22;60294;64.134;-21.862;2023-05-10T02:29:59;10.10;88.80
72338;DHT22;60294;64.134;-21.862;2023-05-10T02:32:26;10.10;88.80
72338;DHT22;60294;64.134;-21.862;2023-05-10T02:34:53;10.10;88.80
72338;DHT22;60294;64.134;-21.862;2023-05-10T02:37:21;10.10;88.70
72338;DHT22;60294;64.134;-21.862;2023-05-10T02:39:48;10.10;88.70
72338;DHT22;60294;64.134;-21.862;2023-05-10T02:42:18;10.00;88.60
72338;DHT22;60294;64.134;-21.862;2023-05-10T02:44:47;10.10;88.60
72338;DHT22;60294;64.134;-21.862;2023-05-10T02:47:13;10.10;88.70
72338;DHT22;60294;64.134;-21.862;2023-05-10T02:49:39;10.10;88.60
72338;DHT22;60294;64.134;-21.862;2023-05-10T02:52:06;10.10;88.80
72338;DHT22;60294;64.134;-21.862;2023-05-10T02:54:45;10.10;88.60
72338;DHT22;60294;64.134;-21.862;2023-05-10T02:57:15;10.10;89.00
72338;DHT22;60294;64.134;-21.862;2023-05-10T02:59:41;10.10;89.10
72338;DHT22;60294;64.134;-21.862;2023-05-10T03:02:09;10.20;89.20
72338;DHT22;60294;64.134;-21.862;2023-05-10T03:04:35;10.20;89.20
72338;DHT22;60294;64.134;-21.862;2023-05-10T03:07:02;10.20;89.20
72338;DHT22;60294;64.134;-21.862;2023-05-10T03:09:28;10.20;89.20
72338;DHT22;60294;64.134;-21.862;2023-05-10T03:20:05;10.20;89.40
72338;DHT22;60294;64.134;-21.862;2023-05-10T03:22:45;10.20;89.50
72338;DHT22;60294;64.134;-21.862;2023-05-10T03:25:12;10.20;89.40
72338;DHT22;60294;64.134;-21.862;2023-05-10T03:27:43;10.20;89.40
72338;DHT22;60294;64.134;-21.862;2023-05-10T03:30:13;10.20;89.40
72338;DHT22;60294;64.134;-21.862;2023-05-10T03:32:39;10.10;89.50
72338;DHT22;60294;64.134;-21.862;2023-05-10T03:35:10;10.20;89.50
72338;DHT22;60294;64.134;-21.862;2023-05-10T03:37:36;10.20;89.40
72338;DHT22;60294;64.134;-21.862;2023-05-10T03:40:03;10.20;89.50
72338;DHT22;60294;64.134;-21.862;2023-05-10T03:42:29;10.10;89.50
72338;DHT22;60294;64.134;-21.862;2023-05-10T03:44:56;10.20;89.60
72338;DHT22;60294;64.134;-21.862;2023-05-10T03:47:21;10.20;89.60
72338;DHT22;60294;64.134;-21.862;2023-05-10T03:49:47;10.20;89.70
72338;DHT22;60294;64.134;-21.862;2023-05-10T03:52:13;10.20;89.60
72338;DHT22;60294;64.134;-21.862;2023-05-10T03:54:39;10.20;89.70
72338;DHT22;60294;64.134;-21.862;2023-05-10T03:57:05;10.20;89.70
72338;DHT22;60294;64.134;-21.862;2023-05-10T03:59:30;10.10;89.60
72338;DHT22;60294;64.134;-21.862;2023-05-10T04:01:56;10.10;89.70
72338;DHT22;60294;64.134;-21.862;2023-05-10T04:04:22;10.10;89.70
72338;DHT22;60294;64.134;-21.862;2023-05-10T04:09:15;10.20;89.70
72338;DHT22;60294;64.134;-21.862;2023-05-10T04:11:42;10.20;89.70
72338;DHT22;60294;64.134;-21.862;2023-05-10T04:14:08;10.20;89.70
72338;DHT22;60294;64.134;-21.862;2023-05-10T04:16:34;10.20;89.70
72338;DHT22;60294;64.134;-21.862;2023-05-10T04:18:59;10.20;89.70
72338;DHT22;60294;64.134;-21.862;2023-05-10T04:26:17;10.20;89.70
72338;DHT22;60294;64.134;-21.862;2023-05-10T04:28:43;10.20;89.70
72338;DHT22;60294;64.134;-21.862;2023-05-10T04:31:10;10.10;89.10
72338;DHT22;60294;64.134;-21.862;2023-05-10T04:33:36;10.10;89.40
72338;DHT22;60294;64.134;-21.862;2023-05-10T04:36:02;10.10;89.60
72338;DHT22;60294;64.134;-21.862;2023-05-10T04:38:29;10.10;89.40
72338;DHT22;60294;64.134;-21.862;2023-05-10T04:41:07;10.10;89.20
72338;DHT22;60294;64.134;-21.862;2023-05-10T04:43:33;10.10;89.20
72338;DHT22;60294;64.134;-21.862;2023-05-10T04:45:59;10.10;89.20
72338;DHT22;60294;64.134;-21.862;2023-05-10T04:48:25;10.10;89.10
72338;DHT22;60294;64.134;-21.862;2023-05-10T04:50:51;10.10;89.20
72338;DHT22;60294;64.134;-21.862;2023-05-10T04:53:17;10.10;88.90
72338;DHT22;60294;64.134;-21.862;2023-05-10T04:55:42;10.10;88.90
72338;DHT22;60294;64.134;-21.862;2023-05-10T04:58:08;10.10;89.00
72338;DHT22;60294;64.134;-21.862;2023-05-10T05:00:34;10.10;88.70
72338;DHT22;60294;64.134;-21.862;2023-05-10T05:03:00;10.10;88.70
72338;DHT22;60294;64.134;-21.862;2023-05-10T05:05:26;10.10;88.60
72338;DHT22;60294;64.134;-21.862;2023-05-10T05:07:52;10.10;88.70
72338;DHT22;60294;64.134;-21.862;2023-05-10T05:10:18;10.00;88.70
72338;DHT22;60294;64.134;-21.862;2023-05-10T05:12:43;9.90;88.10
72338;DHT22;60294;64.134;-21.862;2023-05-10T05:15:10;9.90;88.70
72338;DHT22;60294;64.134;-21.862;2023-05-10T05:17:36;10.00;89.00
72338;DHT22;60294;64.134;-21.862;2023-05-10T05:20:02;10.00;88.80
72338;DHT22;60294;64.134;-21.862;2023-05-10T05:22:28;10.10;89.00
72338;DHT22;60294;64.134;-21.862;2023-05-10T05:24:55;9.90;88.00
72338;DHT22;60294;64.134;-21.862;2023-05-10T05:27:21;9.90;88.70
72338;DHT22;60294;64.134;-21.862;2023-05-10T05:29:50;10.00;88.60
72338;DHT22;60294;64.134;-21.862;2023-05-10T05:32:16;10.10;88.60
72338;DHT22;60294;64.134;-21.862;2023-05-10T05:34:44;10.10;88.60
72338;DHT22;60294;64.134;-21.862;2023-05-10T05:37:14;10.20;88.80
72338;DHT22;60294;64.134;-21.862;2023-05-10T05:39:40;10.10;88.20
72338;DHT22;60294;64.134;-21.862;2023-05-10T05:42:06;10.20;88.30
72338;DHT22;60294;64.134;-21.862;2023-05-10T05:44:32;10.30;88.30
72338;DHT22;60294;64.134;-21.862;2023-05-10T05:46:57;10.30;88.00
72338;DHT22;60294;64.134;-21.862;2023-05-10T05:49:23;10.30;87.70
72338;DHT22;60294;64.134;-21.862;2023-05-10T05:51:49;10.30;87.50
72338;DHT22;60294;64.134;-21.862;2023-05-10T05:54:15;10.40;87.40
72338;DHT22;60294;64.134;-21.862;2023-05-10T05:56:41;10.50;87.50
72338;DHT22;60294;64.134;-21.862;2023-05-10T05:59:07;10.40;87.20
72338;DHT22;60294;64.134;-21.862;2023-05-10T06:01:33;10.40;86.90
72338;DHT22;60294;64.134;-21.862;2023-05-10T06:03:59;10.40;87.00
72338;DHT22;60294;64.134;-21.862;2023-05-10T06:06:25;10.40;86.90
72338;DHT22;60294;64.134;-21.862;2023-05-10T06:08:51;10.40;86.50
72338;DHT22;60294;64.134;-21.862;2023-05-10T06:11:16;10.50;86.90
72338;DHT22;60294;64.134;-21.862;2023-05-10T06:13:42;10.60;87.10
72338;DHT22;60294;64.134;-21.862;2023-05-10T06:16:08;10.60;86.40
72338;DHT22;60294;64.134;-21.862;2023-05-10T06:18:34;10.70;86.00
72338;DHT22;60294;64.134;-21.862;2023-05-10T06:21:00;10.80;86.10
72338;DHT22;60294;64.134;-21.862;2023-05-10T06:23:26;10.80;85.80
72338;DHT22;60294;64.134;-21.862;2023-05-10T06:25:52;10.90;85.50
72338;DHT22;60294;64.134;-21.862;2023-05-10T06:28:18;11.10;85.60
72338;DHT22;60294;64.134;-21.862;2023-05-10T06:30:43;11.10;85.00
72338;DHT22;60294;64.134;-21.862;2023-05-10T06:33:10;11.20;85.20
72338;DHT22;60294;64.134;-21.862;2023-05-10T06:35:35;11.30;85.00
72338;DHT22;60294;64.134;-21.862;2023-05-10T06:38:02;11.30;84.60
72338;DHT22;60294;64.134;-21.862;2023-05-10T06:40:28;11.40;83.80
72338;DHT22;60294;64.134;-21.862;2023-05-10T06:42:53;11.30;84.00
72338;DHT22;60294;64.134;-21.862;2023-05-10T06:45:19;11.40;84.20
72338;DHT22;60294;64.134;-21.862;2023-05-10T06:47:45;11.40;84.50
72338;DHT22;60294;64.134;-21.862;2023-05-10T06:50:11;11.60;84.80
72338;DHT22;60294;64.134;-21.862;2023-05-10T06:52:37;11.70;84.70
72338;DHT22;60294;64.134;-21.862;2023-05-10T06:55:04;11.70;83.80
72338;DHT22;60294;64.134;-21.862;2023-05-10T06:57:30;12.00;84.20
72338;DHT22;60294;64.134;-21.862;2023-05-10T06:59:58;11.90;83.30
72338;DHT22;60294;64.134;-21.862;2023-05-10T07:02:23;11.80;82.70
72338;DHT22;60294;64.134;-21.862;2023-05-10T07:04:49;11.90;83.10
72338;DHT22;60294;64.134;-21.862;2023-05-10T07:07:17;11.70;82.70
72338;DHT22;60294;64.134;-21.862;2023-05-10T07:09:42;12.10;83.70
72338;DHT22;60294;64.134;-21.862;2023-05-10T07:12:08;12.10;82.80
72338;DHT22;60294;64.134;-21.862;2023-05-10T07:14:34;12.30;82.40
72338;DHT22;60294;64.134;-21.862;2023-05-10T07:17:00;12.40;81.70
72338;DHT22;60294;64.134;-21.862;2023-05-10T07:19:26;12.40;81.30
72338;DHT22;60294;64.134;-21.862;2023-05-10T07:21:52;12.50;81.00
72338;DHT22;60294;64.134;-21.862;2023-05-10T07:24:18;12.60;80.90
72338;DHT22;60294;64.134;-21.862;2023-05-10T07:26:44;12.70;80.70
72338;DHT22;60294;64.134;-21.862;2023-05-10T07:29:09;12.60;79.40
72338;DHT22;60294;64.134;-21.862;2023-05-10T07:31:35;12.60;79.10
72338;DHT22;60294;64.134;-21.862;2023-05-10T07:34:01;12.70;79.50
72338;DHT22;60294;64.134;-21.862;2023-05-10T07:36:28;13.00;79.50
72338;DHT22;60294;64.134;-21.862;2023-05-10T07:38:54;13.10;78.80
72338;DHT22;60294;64.134;-21.862;2023-05-10T07:41:21;13.20;78.20
72338;DHT22;60294;64.134;-21.862;2023-05-10T07:43:47;13.30;78.40
72338;DHT22;60294;64.134;-21.862;2023-05-10T07:46:13;13.40;78.10
72338;DHT22;60294;64.134;-21.862;2023-05-10T07:48:39;13.30;76.80
72338;DHT22;60294;64.134;-21.862;2023-05-10T07:51:05;13.10;77.60
72338;DHT22;60294;64.134;-21.862;2023-05-10T07:53:32;13.10;78.20
72338;DHT22;60294;64.134;-21.862;2023-05-10T07:55:58;13.00;77.20
72338;DHT22;60294;64.134;-21.862;2023-05-10T07:58:25;12.80;79.00
72338;DHT22;60294;64.134;-21.862;2023-05-10T08:00:51;12.30;80.30
72338;DHT22;60294;64.134;-21.862;2023-05-10T08:03:16;12.20;81.50
72338;DHT22;60294;64.134;-21.862;2023-05-10T08:05:42;12.20;82.40
72338;DHT22;60294;64.134;-21.862;2023-05-10T08:08:08;12.20;81.50
72338;DHT22;60294;64.134;-21.862;2023-05-10T08:10:34;12.30;81.50
72338;DHT22;60294;64.134;-21.862;2023-05-10T08:13:00;12.30;81.10
72338;DHT22;60294;64.134;-21.862;2023-05-10T08:15:26;12.10;81.20
72338;DHT22;60294;64.134;-21.862;2023-05-10T08:17:52;11.80;81.20
72338;DHT22;60294;64.134;-21.862;2023-05-10T08:20:18;12.00;82.10
72338;DHT22;60294;64.134;-21.862;2023-05-10T08:22:47;12.20;82.00
72338;DHT22;60294;64.134;-21.862;2023-05-10T08:25:13;11.80;81.80
72338;DHT22;60294;64.134;-21.862;2023-05-10T08:27:39;12.00;81.50
72338;DHT22;60294;64.134;-21.862;2023-05-10T08:30:05;12.10;82.40
72338;DHT22;60294;64.134;-21.862;2023-05-10T08:32:31;12.10;80.90
72338;DHT22;60294;64.134;-21.862;2023-05-10T08:34:57;12.20;81.30
72338;DHT22;60294;64.134;-21.862;2023-05-10T08:37:23;12.20;81.50
72338;DHT22;60294;64.134;-21.862;2023-05-10T08:39:49;12.10;81.00
72338;DHT22;60294;64.134;-21.862;2023-05-10T08:42:19;12.10;81.60
72338;DHT22;60294;64.134;-21.862;2023-05-10T08:44:48;12.10;81.20
72338;DHT22;60294;64.134;-21.862;2023-05-10T08:47:16;12.10;81.20
72338;DHT22;60294;64.134;-21.862;2023-05-10T08:49:44;12.10;81.50
72338;DHT22;60294;64.134;-21.862;2023-05-10T08:52:15;11.90;81.00
72338;DHT22;60294;64.134;-21.862;2023-05-10T08:54:42;12.10;81.80
72338;DHT22;60294;64.134;-21.862;2023-05-10T08:57:08;12.10;81.30
72338;DHT22;60294;64.134;-21.862;2023-05-10T08:59:34;12.10;81.40
72338;DHT22;60294;64.134;-21.862;2023-05-10T09:02:00;11.80;80.10
72338;DHT22;60294;64.134;-21.862;2023-05-10T09:04:28;11.90;82.50
72338;DHT22;60294;64.134;-21.862;2023-05-10T09:06:54;12.20;81.90
72338;DHT22;60294;64.134;-21.862;2023-05-10T09:09:20;11.80;80.80
72338;DHT22;60294;64.134;-21.862;2023-05-10T09:11:47;11.90;81.20
72338;DHT22;60294;64.134;-21.862;2023-05-10T09:14:13;12.30;81.60
72338;DHT22;60294;64.134;-21.862;2023-05-10T09:16:40;12.20;80.90
72338;DHT22;60294;64.134;-21.862;2023-05-10T09:19:07;11.90;80.10
72338;DHT22;60294;64.134;-21.862;2023-05-10T09:21:35;11.70;82.20
72338;DHT22;60294;64.134;-21.862;2023-05-10T09:24:05;11.90;81.30
72338;DHT22;60294;64.134;-21.862;2023-05-10T09:26:31;12.10;81.30
72338;DHT22;60294;64.134;-21.862;2023-05-10T09:28:59;12.00;80.00
72338;DHT22;60294;64.134;-21.862;2023-05-10T09:31:26;12.10;80.70
72338;DHT22;60294;64.134;-21.862;2023-05-10T09:34:08;12.00;80.90
72338;DHT22;60294;64.134;-21.862;2023-05-10T09:36:34;12.00;80.90
72338;DHT22;60294;64.134;-21.862;2023-05-10T09:38:59;12.10;81.50
72338;DHT22;60294;64.134;-21.862;2023-05-10T09:41:25;11.70;81.30
72338;DHT22;60294;64.134;-21.862;2023-05-10T09:43:55;12.10;82.70
72338;DHT22;60294;64.134;-21.862;2023-05-10T09:46:22;12.10;80.30
72338;DHT22;60294;64.134;-21.862;2023-05-10T09:48:51;12.40;80.50
72338;DHT22;60294;64.134;-21.862;2023-05-10T09:51:21;13.00;79.90
72338;DHT22;60294;64.134;-21.862;2023-05-10T09:53:47;12.90;77.20
72338;DHT22;60294;64.134;-21.862;2023-05-10T09:56:33;12.60;78.60
72338;DHT22;60294;64.134;-21.862;2023-05-10T09:59:04;12.70;78.20
72338;DHT22;60294;64.134;-21.862;2023-05-10T10:01:30;12.20;78.70
72338;DHT22;60294;64.134;-21.862;2023-05-10T10:03:57;12.00;79.60
72338;DHT22;60294;64.134;-21.862;2023-05-10T10:06:24;12.40;79.50
72338;DHT22;60294;64.134;-21.862;2023-05-10T10:08:51;12.60;79.20
72338;DHT22;60294;64.134;-21.862;2023-05-10T10:11:17;12.90;79.20
72338;DHT22;60294;64.134;-21.862;2023-05-10T10:13:43;12.80;79.30
72338;DHT22;60294;64.134;-21.862;2023-05-10T10:16:09;12.60;80.60
72338;DHT22;60294;64.134;-21.862;2023-05-10T10:18:36;13.00;80.00
72338;DHT22;60294;64.134;-21.862;2023-05-10T10:21:08;12.90;78.30
72338;DHT22;60294;64.134;-21.862;2023-05-10T10:23:37;12.60;79.20
72338;DHT22;60294;64.134;-21.862;2023-05-10T10:26:04;12.50;79.70
72338;DHT22;60294;64.134;-21.862;2023-05-10T10:31:41;12.40;80.80
72338;DHT22;60294;64.134;-21.862;2023-05-10T10:34:16;12.60;80.20
72338;DHT22;60294;64.134;-21.862;2023-05-10T10:36:46;12.20;80.80
72338;DHT22;60294;64.134;-21.862;2023-05-10T10:39:13;12.00;81.30
72338;DHT22;60294;64.134;-21.862;2023-05-10T10:41:56;12.60;81.20
72338;DHT22;60294;64.134;-21.862;2023-05-10T10:44:34;12.90;80.10
72338;DHT22;60294;64.134;-21.862;2023-05-10T10:47:09;13.10;79.10
72338;DHT22;60294;64.134;-21.862;2023-05-10T10:52:21;12.90;78.40
72338;DHT22;60294;64.134;-21.862;2023-05-10T10:57:21;13.10;78.90
72338;DHT22;60294;64.134;-21.862;2023-05-10T10:59:47;13.10;78.40
72338;DHT22;60294;64.134;-21.862;2023-05-10T11:03:06;13.00;79.50
72338;DHT22;60294;64.134;-21.862;2023-05-10T11:08:18;12.70;80.80
72338;DHT22;60294;64.134;-21.862;2023-05-10T11:11:04;12.60;79.90
72338;DHT22;60294;64.134;-21.862;2023-05-10T11:13:41;12.40;80.70
72338;DHT22;60294;64.134;-21.862;2023-05-10T11:16:12;12.20;81.60
72338;DHT22;60294;64.134;-21.862;2023-05-10T11:18:39;11.90;81.60
72338;DHT22;60294;64.134;-21.862;2023-05-10T11:21:07;12.00;82.60
72338;DHT22;60294;64.134;-21.862;2023-05-10T11:26:11;12.50;80.10
72338;DHT22;60294;64.134;-21.862;2023-05-10T11:28:47;12.30;81.50
72338;DHT22;60294;64.134;-21.862;2023-05-10T11:31:17;12.30;80.90
72338;DHT22;60294;64.134;-21.862;2023-05-10T11:33:46;12.50;80.60
72338;DHT22;60294;64.134;-21.862;2023-05-10T11:36:15;12.60;80.70
72338;DHT22;60294;64.134;-21.862;2023-05-10T11:38:41;12.60;80.00
72338;DHT22;60294;64.134;-21.862;2023-05-10T11:41:11;12.80;80.10
72338;DHT22;60294;64.134;-21.862;2023-05-10T11:43:39;13.20;79.80
72338;DHT22;60294;64.134;-21.862;2023-05-10T11:46:10;13.50;78.90
72338;DHT22;60294;64.134;-21.862;2023-05-10T11:48:38;13.10;77.80
72338;DHT22;60294;64.134;-21.862;2023-05-10T11:51:04;12.80;78.40
72338;DHT22;60294;64.134;-21.862;2023-05-10T11:53:31;13.00;78.40
72338;DHT22;60294;64.134;-21.862;2023-05-10T11:56:07;13.00;78.00
72338;DHT22;60294;64.134;-21.862;2023-05-10T11:58:34;13.20;78.30
72338;DHT22;60294;64.134;-21.862;2023-05-10T12:01:00;13.10;78.10
72338;DHT22;60294;64.134;-21.862;2023-05-10T12:03:27;13.40;78.20
72338;DHT22;60294;64.134;-21.862;2023-05-10T12:05:54;13.20;78.00
72338;DHT22;60294;64.134;-21.862;2023-05-10T12:08:22;13.60;75.70
72338;DHT22;60294;64.134;-21.862;2023-05-10T12:10:49;13.30;76.60
72338;DHT22;60294;64.134;-21.862;2023-05-10T12:13:15;13.50;76.40
72338;DHT22;60294;64.134;-21.862;2023-05-10T12:15:41;13.30;75.20
72338;DHT22;60294;64.134;-21.862;2023-05-10T12:18:12;13.10;77.00
72338;DHT22;60294;64.134;-21.862;2023-05-10T12:20:39;12.90;76.30
72338;DHT22;60294;64.134;-21.862;2023-05-10T12:23:05;13.20;74.20
72338;DHT22;60294;64.134;-21.862;2023-05-10T12:25:34;13.80;73.80
72338;DHT22;60294;64.134;-21.862;2023-05-10T12:28:03;13.10;76.40
72338;DHT22;60294;64.134;-21.862;2023-05-10T12:30:34;13.40;74.60
72338;DHT22;60294;64.134;-21.862;2023-05-10T12:33:11;13.40;71.90
72338;DHT22;60294;64.134;-21.862;2023-05-10T12:35:48;13.70;73.80
72338;DHT22;60294;64.134;-21.862;2023-05-10T12:38:35;13.70;71.80
72338;DHT22;60294;64.134;-21.862;2023-05-10T12:41:07;13.40;71.60
72338;DHT22;60294;64.134;-21.862;2023-05-10T12:43:34;13.20;73.20
72338;DHT22;60294;64.134;-21.862;2023-05-10T12:46:16;13.60;74.30
72338;DHT22;60294;64.134;-21.862;2023-05-10T12:48:43;13.40;73.60
72338;DHT22;60294;64.134;-21.862;2023-05-10T12:51:10;13.10;75.30
72338;DHT22;60294;64.134;-21.862;2023-05-10T12:53:41;12.70;76.70
72338;DHT22;60294;64.134;-21.862;2023-05-10T12:56:07;13.20;76.80
72338;DHT22;60294;64.134;-21.862;2023-05-10T12:58:33;13.40;76.20
72338;DHT22;60294;64.134;-21.862;2023-05-10T13:00:59;13.10;75.90
72338;DHT22;60294;64.134;-21.862;2023-05-10T13:03:25;13.10;77.40
72338;DHT22;60294;64.134;-21.862;2023-05-10T13:05:51;13.10;77.20
72338;DHT22;60294;64.134;-21.862;2023-05-10T13:08:17;13.00;78.40
72338;DHT22;60294;64.134;-21.862;2023-05-10T13:10:42;12.60;78.80
72338;DHT22;60294;64.134;-21.862;2023-05-10T13:13:08;12.50;80.60
72338;DHT22;60294;64.134;-21.862;2023-05-10T13:15:35;13.20;79.50
72338;DHT22;60294;64.134;-21.862;2023-05-10T13:18:01;13.50;78.70
72338;DHT22;60294;64.134;-21.862;2023-05-10T13:20:27;12.90;79.00
72338;DHT22;60294;64.134;-21.862;2023-05-10T13:22:52;13.00;79.20
72338;DHT22;60294;64.134;-21.862;2023-05-10T13:25:18;13.00;78.40
72338;DHT22;60294;64.134;-21.862;2023-05-10T13:27:45;13.30;78.10
72338;DHT22;60294;64.134;-21.862;2023-05-10T13:30:11;13.50;75.80
72338;DHT22;60294;64.134;-21.862;2023-05-10T13:32:37;13.30;76.90
72338;DHT22;60294;64.134;-21.862;2023-05-10T13:35:04;13.70;77.00
72338;DHT22;60294;64.134;-21.862;2023-05-10T13:37:31;13.60;76.70
72338;DHT22;60294;64.134;-21.862;2023-05-10T13:39:57;14.00;75.00
72338;DHT22;60294;64.134;-21.862;2023-05-10T13:42:23;13.80;76.00
72338;DHT22;60294;64.134;-21.862;2023-05-10T13:44:51;14.10;76.10
72338;DHT22;60294;64.134;-21.862;2023-05-10T13:47:17;13.30;76.70
72338;DHT22;60294;64.134;-21.862;2023-05-10T13:49:43;13.30;77.70
72338;DHT22;60294;64.134;-21.862;2023-05-10T13:52:09;13.60;76.20
72338;DHT22;60294;64.134;-21.862;2023-05-10T13:54:38;13.30;76.80
72338;DHT22;60294;64.134;-21.862;2023-05-10T13:57:04;13.20;77.60
72338;DHT22;60294;64.134;-21.862;2023-05-10T13:59:30;13.30;77.60
72338;DHT22;60294;64.134;-21.862;2023-05-10T14:01:57;13.50;77.40
72338;DHT22;60294;64.134;-21.862;2023-05-10T14:04:23;13.90;75.50
72338;DHT22;60294;64.134;-21.862;2023-05-10T14:06:49;13.90;74.70
72338;DHT22;60294;64.134;-21.862;2023-05-10T14:09:15;14.70;73.40
72338;DHT22;60294;64.134;-21.862;2023-05-10T14:11:41;14.70;69.80
72338;DHT22;60294;64.134;-21.862;2023-05-10T14:14:12;15.10;67.00
72338;DHT22;60294;64.134;-21.862;2023-05-10T14:16:42;15.60;67.00
72338;DHT22;60294;64.134;-21.862;2023-05-10T14:19:09;15.30;68.20
72338;DHT22;60294;64.134;-21.862;2023-05-10T14:21:35;15.20;71.50
72338;DHT22;60294;64.134;-21.862;2023-05-10T14:24:00;15.30;68.50
72338;DHT22;60294;64.134;-21.862;2023-05-10T14:26:26;14.50;69.90
72338;DHT22;60294;64.134;-21.862;2023-05-10T14:28:53;14.60;73.80
72338;DHT22;60294;64.134;-21.862;2023-05-10T14:31:19;14.70;71.50
72338;DHT22;60294;64.134;-21.862;2023-05-10T14:33:48;14.40;74.60
72338;DHT22;60294;64.134;-21.862;2023-05-10T14:36:14;13.40;74.00
72338;DHT22;60294;64.134;-21.862;2023-05-10T14:38:40;14.30;74.60
72338;DHT22;60294;64.134;-21.862;2023-05-10T14:41:06;14.30;72.90
72338;DHT22;60294;64.134;-21.862;2023-05-10T14:43:32;14.20;72.70
72338;DHT22;60294;64.134;-21.862;2023-05-10T14:45:58;13.50;75.90
72338;DHT22;60294;64.134;-21.862;2023-05-10T14:48:24;13.20;76.40
72338;DHT22;60294;64.134;-21.862;2023-05-10T14:50:50;13.80;76.00
72338;DHT22;60294;64.134;-21.862;2023-05-10T14:53:18;14.10;76.40
72338;DHT22;60294;64.134;-21.862;2023-05-10T14:55:43;14.10;72.70
72338;DHT22;60294;64.134;-21.862;2023-05-10T14:58:09;13.70;71.80
72338;DHT22;60294;64.134;-21.862;2023-05-10T15:00:35;14.10;72.00
72338;DHT22;60294;64.134;-21.862;2023-05-10T15:03:01;14.70;72.50
72338;DHT22;60294;64.134;-21.862;2023-05-10T15:05:27;15.00;69.70
72338;DHT22;60294;64.134;-21.862;2023-05-10T15:07:53;14.50;72.70
72338;DHT22;60294;64.134;-21.862;2023-05-10T15:10:19;15.40;70.40
72338;DHT22;60294;64.134;-21.862;2023-05-10T15:12:44;15.50;68.80
72338;DHT22;60294;64.134;-21.862;2023-05-10T15:15:10;14.20;73.30
72338;DHT22;60294;64.134;-21.862;2023-05-10T15:17:36;13.70;73.50
72338;DHT22;60294;64.134;-21.862;2023-05-10T15:20:02;14.30;73.10
72338;DHT22;60294;64.134;-21.862;2023-05-10T15:22:29;12.90;75.80
72338;DHT22;60294;64.134;-21.862;2023-05-10T15:24:57;12.90;77.10
72338;DHT22;60294;64.134;-21.862;2023-05-10T15:27:23;13.30;76.70
72338;DHT22;60294;64.134;-21.862;2023-05-10T15:29:49;13.10;75.40
72338;DHT22;60294;64.134;-21.862;2023-05-10T15:32:15;13.10;77.80
72338;DHT22;60294;64.134;-21.862;2023-05-10T15:34:41;14.00;73.00
72338;DHT22;60294;64.134;-21.862;2023-05-10T15:37:06;13.70;72.10
72338;DHT22;60294;64.134;-21.862;2023-05-10T15:39:32;12.80;75.00
72338;DHT22;60294;64.134;-21.862;2023-05-10T15:41:58;12.70;76.40
72338;DHT22;60294;64.134;-21.862;2023-05-10T15:44:24;12.30;77.90
72338;DHT22;60294;64.134;-21.862;2023-05-10T15:46:50;12.20;77.80
72338;DHT22;60294;64.134;-21.862;2023-05-10T15:49:16;12.90;77.70
72338;DHT22;60294;64.134;-21.862;2023-05-10T15:51:41;12.60;77.00
72338;DHT22;60294;64.134;-21.862;2023-05-10T15:54:07;12.10;78.20